EBLB

Elsenborn Airport

Bütgenbach, Belgium
METAR EBLB 191055Z AUTO 21004KT 9999 OVC010/// 05/04 Q1012 GRN
Observed Flight Rules
Dec-19 @ 10:55 UTC (46 minutes ago) Marginal Visual Flight Rules
Wind Visibility Clouds
210° at 4 knots 10,000+ meters
  • Overcast at 1,000' AGL
Temperatures Readings
Current 5°C / 41°F
Dewpoint 4°C / 39°F
Humidity 93%
Altimeter 29.88" Hg
Pressure 1012 hPa
Elevation 570
METAR EBLB 191055Z AUTO 21004KT 9999 OVC010/// 05/04 Q1012 GRN
Observed Flight Rules
Dec-19 @ 10:55 UTC
(46 minutes ago)
MVFR
Wind Visibility
210° at 4 knots 10,000+ meters
Clouds
  • Overcast at 1,000' AGL
Temperature Dewpoint
5°C / 41°F 4°C / 39°F
Humidity Altimeter Pressure
93% 29.88" Hg 1012 hPa